createdAt,value
2022-11-14T00:02:13.065Z,6.60
2022-11-14T00:04:40.936Z,7.18
2022-11-14T00:07:07.478Z,6.78
2022-11-14T00:09:33.989Z,6.70
2022-11-14T00:12:00.494Z,6.97
2022-11-14T00:14:27.049Z,7.50
2022-11-14T00:16:53.445Z,6.72
2022-11-14T00:19:20.004Z,7.50
2022-11-14T00:21:47.840Z,8.45
2022-11-14T00:24:14.285Z,8.43
2022-11-14T00:26:40.783Z,8.40
2022-11-14T00:29:07.212Z,8.10
2022-11-14T00:31:33.739Z,8.25
2022-11-14T00:34:00.135Z,8.25
2022-11-14T00:36:26.668Z,8.05
2022-11-14T00:38:55.154Z,8.15
2022-11-14T00:41:21.879Z,8.27
2022-11-14T00:43:48.317Z,7.53
2022-11-14T00:46:14.739Z,7.57
2022-11-14T00:48:41.515Z,7.82
2022-11-14T00:51:07.975Z,7.95
2022-11-14T00:53:34.380Z,7.93
2022-11-14T00:56:03.645Z,7.43
2022-11-14T00:58:30.493Z,7.97
2022-11-14T01:00:57.244Z,7.47
2022-11-14T01:03:23.670Z,7.05
2022-11-14T01:05:50.993Z,7.65
2022-11-14T01:08:18.379Z,7.18
2022-11-14T01:10:47.108Z,7.63
2022-11-14T01:13:15.426Z,7.95
2022-11-14T01:15:42.755Z,8.23
2022-11-14T01:18:10.534Z,7.13
2022-11-14T01:20:38.214Z,7.93
2022-11-14T01:23:04.649Z,8.07
2022-11-14T01:25:32.644Z,8.18
2022-11-14T01:27:59.054Z,8.07
2022-11-14T01:30:26.885Z,7.30
2022-11-14T01:32:53.320Z,7.20
2022-11-14T01:35:19.772Z,8.18
2022-11-14T01:37:46.215Z,8.35
2022-11-14T01:40:12.969Z,8.20
2022-11-14T01:42:39.419Z,9.32
2022-11-14T01:45:20.716Z,8.02
2022-11-14T01:47:49.054Z,8.45
2022-11-14T01:50:15.551Z,7.78
2022-11-14T01:52:42.285Z,9.00
2022-11-14T01:55:09.757Z,8.02
2022-11-14T01:57:37.174Z,7.93
2022-11-14T02:00:05.851Z,7.82
2022-11-14T02:02:32.379Z,7.63
2022-11-14T02:05:05.919Z,7.28
2022-11-14T05:05:59.947Z,12.82
2022-11-14T05:10:52.722Z,12.55
2022-11-14T05:13:19.222Z,14.15
2022-11-14T05:15:45.713Z,13.85
2022-11-14T08:36:10.158Z,23.02
2022-11-14T08:38:37.227Z,22.92
2022-11-14T08:41:04.086Z,24.27
2022-11-14T08:43:30.920Z,24.58
2022-11-14T08:46:01.658Z,24.48
2022-11-14T08:48:29.151Z,24.02
2022-11-14T08:50:55.823Z,28.20
2022-11-14T08:53:23.893Z,27.33
2022-11-14T08:55:50.355Z,27.45
